createdAt,value
2023-02-23T00:02:46.310Z,78.09
2023-02-23T00:07:50.375Z,78.49
2023-02-23T00:12:53.276Z,78.74
2023-02-23T00:17:57.837Z,78.87
2023-02-23T00:23:00.975Z,79.17
2023-02-23T00:28:04.563Z,79.40
2023-02-23T00:33:07.678Z,79.40
2023-02-23T00:38:10.615Z,79.64
2023-02-23T00:43:15.231Z,79.76
2023-02-23T00:48:18.270Z,79.86
2023-02-23T00:53:21.226Z,79.69
2023-02-23T00:58:27.768Z,79.65
2023-02-23T01:03:30.948Z,79.70
2023-02-23T01:08:35.463Z,79.66
2023-02-23T01:13:39.424Z,79.47
2023-02-23T01:18:46.711Z,79.10
2023-02-23T01:23:51.308Z,78.94
2023-02-23T01:29:00.781Z,78.45
2023-02-23T01:34:06.115Z,78.18
2023-02-23T01:39:15.944Z,77.72
2023-02-23T01:44:18.927Z,77.84
2023-02-23T01:49:28.105Z,77.72
2023-02-23T01:54:38.154Z,77.48
2023-02-23T01:59:47.040Z,77.32
2023-02-23T02:04:52.398Z,77.26
2023-02-23T02:10:13.810Z,76.99
2023-02-23T02:15:19.419Z,76.71
2023-02-23T02:20:42.971Z,76.19
2023-02-23T02:26:37.547Z,75.93
2023-02-23T02:31:49.815Z,76.01
2023-02-23T02:37:45.441Z,75.59
2023-02-23T02:43:00.267Z,75.44
2023-02-23T02:48:38.750Z,75.33
2023-02-23T02:54:38.055Z,75.35
2023-02-23T03:00:06.885Z,75.32
2023-02-23T03:05:38.186Z,75.20
2023-02-23T03:11:28.697Z,74.92
2023-02-23T03:17:07.277Z,74.71
2023-02-23T03:23:01.163Z,74.63
2023-02-23T03:28:51.553Z,74.74
2023-02-23T03:34:30.069Z,74.74
2023-02-23T03:40:04.545Z,74.47
2023-02-23T03:45:37.507Z,74.60
2023-02-23T03:51:12.593Z,74.66
2023-02-23T03:56:37.174Z,74.49
2023-02-23T04:01:59.270Z,74.44
2023-02-23T04:07:23.009Z,74.35
2023-02-23T04:12:57.668Z,74.08
2023-02-23T04:18:00.788Z,74.29
2023-02-23T04:23:03.830Z,74.12
2023-02-23T04:28:07.003Z,74.07
2023-02-23T04:33:10.264Z,74.05
2023-02-23T04:38:13.170Z,73.97
2023-02-23T04:43:16.266Z,73.74
2023-02-23T04:48:19.491Z,73.78
2023-02-23T04:53:22.691Z,73.45
2023-02-23T04:58:25.776Z,73.32
2023-02-23T05:03:28.731Z,73.54
2023-02-23T05:08:31.709Z,73.21
2023-02-23T05:13:35.125Z,73.22
2023-02-23T05:18:38.041Z,73.25
2023-02-23T05:23:41.730Z,73.73
2023-02-23T05:28:45.172Z,73.69
2023-02-23T05:33:48.183Z,73.88
2023-02-23T05:38:51.145Z,73.62
2023-02-23T05:43:55.245Z,73.63
2023-02-23T05:49:01.316Z,73.74
2023-02-23T05:54:04.777Z,73.76
2023-02-23T05:59:07.774Z,73.51
2023-02-23T06:04:11.068Z,73.23
2023-02-23T06:09:14.042Z,73.11
2023-02-23T06:14:17.543Z,72.69
2023-02-23T06:19:21.806Z,71.99
2023-02-23T06:24:24.919Z,71.83
2023-02-23T06:29:28.569Z,71.08
2023-02-23T06:34:32.069Z,70.92
2023-02-23T06:39:34.996Z,70.61
2023-02-23T06:44:38.076Z,70.35
2023-02-23T06:49:40.983Z,69.94
2023-02-23T06:54:44.813Z,69.79
2023-02-23T06:59:48.057Z,69.04
2023-02-23T07:04:51.123Z,69.06
2023-02-23T07:09:53.988Z,68.36
2023-02-23T07:14:57.148Z,68.41
2023-02-23T07:20:00.116Z,67.95
2023-02-23T07:25:04.575Z,67.34
2023-02-23T07:30:08.860Z,66.40
2023-02-23T07:35:12.514Z,66.21
2023-02-23T07:40:16.220Z,65.54
2023-02-23T07:45:19.506Z,65.60
2023-02-23T07:50:22.463Z,64.66
2023-02-23T07:55:25.472Z,64.68
2023-02-23T08:00:28.620Z,64.05
2023-02-23T08:05:32.220Z,63.35
2023-02-23T08:10:35.125Z,63.36
2023-02-23T08:15:38.634Z,62.36
2023-02-23T08:20:41.415Z,61.70
2023-02-23T08:25:44.513Z,61.50
2023-02-23T08:30:47.504Z,61.66
2023-02-23T08:35:53.565Z,60.92
2023-02-23T08:41:01.734Z,59.83
2023-02-23T08:46:06.591Z,59.45
2023-02-23T08:51:09.813Z,59.37
2023-02-23T08:56:13.397Z,59.06
2023-02-23T09:01:22.165Z,59.21
2023-02-23T09:06:26.760Z,58.58
2023-02-23T09:11:29.666Z,58.42
2023-02-23T09:16:33.487Z,57.56
2023-02-23T09:21:36.745Z,56.92
2023-02-23T09:26:43.537Z,57.09
2023-02-23T09:31:48.099Z,57.21
2023-02-23T09:36:52.186Z,56.39
2023-02-23T09:42:13.071Z,56.52
2023-02-23T09:47:27.786Z,56.49
2023-02-23T09:52:45.412Z,55.75
2023-02-23T09:57:49.922Z,55.94
2023-02-23T10:03:02.269Z,55.35
2023-02-23T10:08:19.549Z,54.72
2023-02-23T10:13:49.185Z,54.50
2023-02-23T10:19:04.144Z,54.03
2023-02-23T10:24:29.219Z,53.25
2023-02-23T10:29:52.462Z,53.47
2023-02-23T10:34:56.970Z,52.75
2023-02-23T10:40:00.093Z,52.49
2023-02-23T10:45:03.551Z,51.69
2023-02-23T10:50:09.719Z,50.74
2023-02-23T10:55:31.800Z,51.43
2023-02-23T11:00:41.201Z,50.38
2023-02-23T11:05:50.478Z,50.81
2023-02-23T11:11:06.838Z,50.37
2023-02-23T11:16:17.201Z,50.13
2023-02-23T11:21:38.859Z,49.02
2023-02-23T11:26:44.472Z,49.17
2023-02-23T11:31:52.510Z,49.19
2023-02-23T11:37:06.257Z,48.79
2023-02-23T11:42:23.246Z,49.15
2023-02-23T11:47:26.304Z,49.15
2023-02-23T11:52:30.172Z,48.38
2023-02-23T11:57:37.026Z,48.85
2023-02-23T12:03:03.647Z,48.74
2023-02-23T12:08:28.470Z,48.39
2023-02-23T12:13:56.620Z,48.53
2023-02-23T12:19:19.239Z,48.94
2023-02-23T12:24:35.042Z,49.36
2023-02-23T12:29:55.829Z,49.59
2023-02-23T12:35:04.955Z,49.95
2023-02-23T12:40:19.362Z,50.37
2023-02-23T12:46:02.949Z,50.18
2023-02-23T12:51:25.414Z,50.68
2023-02-23T12:56:53.982Z,50.79
2023-02-23T13:02:01.453Z,51.11
2023-02-23T13:07:41.873Z,50.41
2023-02-23T13:13:11.405Z,50.51
2023-02-23T13:18:41.479Z,50.25
2023-02-23T13:24:11.184Z,50.65
2023-02-23T13:29:32.865Z,50.56
2023-02-23T13:34:54.616Z,50.32
2023-02-23T13:40:41.115Z,50.62
2023-02-23T13:46:25.661Z,50.46
2023-02-23T13:51:52.266Z,50.22
2023-02-23T13:56:59.215Z,50.35
2023-02-23T14:02:37.257Z,50.40
2023-02-23T14:07:45.095Z,50.66
2023-02-23T14:13:26.640Z,50.65
2023-02-23T14:18:33.196Z,50.88
2023-02-23T14:24:13.061Z,51.09
2023-02-23T14:29:31.987Z,50.99
2023-02-23T14:34:57.563Z,51.17
2023-02-23T14:40:25.182Z,51.49
2023-02-23T14:45:38.970Z,51.60
2023-02-23T14:50:42.255Z,52.14
2023-02-23T14:55:45.688Z,52.33
2023-02-23T15:00:49.405Z,52.78
2023-02-23T15:05:58.971Z,52.68
2023-02-23T15:11:13.311Z,52.63
2023-02-23T15:16:23.153Z,52.95
2023-02-23T15:21:26.645Z,53.23
2023-02-23T15:26:37.522Z,53.13
2023-02-23T15:31:50.389Z,53.47
2023-02-23T15:37:05.849Z,53.81
2023-02-23T15:42:16.594Z,54.22
2023-02-23T15:47:28.500Z,54.76
2023-02-23T15:52:35.152Z,55.35
2023-02-23T15:57:56.264Z,55.61
2023-02-23T16:03:02.774Z,55.88
2023-02-23T16:08:24.320Z,55.81
2023-02-23T16:13:27.472Z,56.22
2023-02-23T16:18:40.691Z,56.83
2023-02-23T16:23:49.409Z,57.39
2023-02-23T16:29:02.192Z,57.36
2023-02-23T16:34:31.696Z,58.36
2023-02-23T16:39:34.697Z,58.76
2023-02-23T16:44:43.645Z,59.23
2023-02-23T16:49:47.040Z,59.68
2023-02-23T16:54:54.597Z,60.16
2023-02-23T16:59:58.877Z,60.97
2023-02-23T17:05:01.903Z,61.25
2023-02-23T17:10:06.321Z,61.97
2023-02-23T17:15:18.994Z,61.91
2023-02-23T17:20:26.257Z,61.83
2023-02-23T17:25:29.461Z,62.41
2023-02-23T17:30:32.720Z,62.71
2023-02-23T17:35:37.622Z,63.12
2023-02-23T17:40:40.512Z,63.30
2023-02-23T17:45:43.556Z,63.64
2023-02-23T17:50:46.539Z,63.83
2023-02-23T17:55:51.377Z,63.93
2023-02-23T18:00:59.414Z,63.69
2023-02-23T18:06:11.695Z,63.77
2023-02-23T18:11:18.764Z,63.72
2023-02-23T18:16:23.453Z,63.89
2023-02-23T18:21:26.638Z,64.00
2023-02-23T18:26:30.784Z,64.45
2023-02-23T18:31:35.147Z,64.31
2023-02-23T18:36:38.628Z,64.10
2023-02-23T18:41:42.611Z,64.39
2023-02-23T18:46:46.682Z,64.82
2023-02-23T18:51:49.982Z,65.06
2023-02-23T18:56:54.526Z,65.37
2023-02-23T19:01:57.726Z,65.64
2023-02-23T19:07:00.698Z,65.99
2023-02-23T19:12:03.948Z,66.21
2023-02-23T19:17:07.071Z,66.42
2023-02-23T19:22:10.084Z,66.65
2023-02-23T19:27:12.870Z,66.53
2023-02-23T19:32:19.056Z,66.63
2023-02-23T19:37:24.509Z,66.81
2023-02-23T19:42:27.516Z,67.05
2023-02-23T19:47:30.690Z,67.54
2023-02-23T19:52:34.900Z,67.64
2023-02-23T19:57:37.852Z,67.95
2023-02-23T20:02:44.646Z,68.34
2023-02-23T20:07:48.696Z,68.44
2023-02-23T20:12:53.360Z,68.76
2023-02-23T20:17:56.051Z,68.81
2023-02-23T20:22:59.093Z,68.95
2023-02-23T20:28:03.349Z,69.30
2023-02-23T20:33:10.961Z,69.36
2023-02-23T20:38:15.488Z,68.70
2023-02-23T20:43:18.523Z,69.44
2023-02-23T20:48:21.540Z,69.79
2023-02-23T20:53:26.348Z,70.16
2023-02-23T20:58:29.206Z,70.16
2023-02-23T21:03:35.724Z,70.31
2023-02-23T21:08:39.937Z,70.68
2023-02-23T21:13:43.484Z,70.56
2023-02-23T21:18:52.592Z,70.79
2023-02-23T21:23:55.501Z,70.76
2023-02-23T21:28:58.521Z,70.95
2023-02-23T21:34:05.478Z,70.79
2023-02-23T21:39:08.589Z,70.93
2023-02-23T21:44:12.161Z,71.19
2023-02-23T21:49:16.633Z,71.07
2023-02-23T21:54:21.588Z,71.24
2023-02-23T21:59:24.576Z,71.43
2023-02-23T22:04:27.574Z,71.74
2023-02-23T22:09:30.504Z,71.85
2023-02-23T22:14:33.643Z,72.08
2023-02-23T22:19:36.535Z,72.32
2023-02-23T22:24:39.484Z,72.29
2023-02-23T22:29:43.602Z,72.92
2023-02-23T22:34:46.547Z,73.11
2023-02-23T22:39:50.021Z,73.01
2023-02-23T22:44:53.086Z,72.90
2023-02-23T22:49:55.833Z,73.01
2023-02-23T22:54:59.556Z,72.71
2023-02-23T23:00:10.390Z,73.07
2023-02-23T23:05:13.938Z,73.04
2023-02-23T23:10:18.138Z,73.00
2023-02-23T23:15:22.193Z,73.04
2023-02-23T23:20:26.385Z,73.00
2023-02-23T23:25:29.715Z,73.09
2023-02-23T23:30:35.254Z,73.18
2023-02-23T23:35:38.175Z,73.38
2023-02-23T23:40:46.926Z,73.42
2023-02-23T23:45:51.931Z,73.58
2023-02-23T23:50:56.237Z,73.46
2023-02-23T23:56:09.094Z,73.67
